createdAt,value
2023-01-06T00:00:32.013Z,78.90
2023-01-06T00:05:35.922Z,78.80
2023-01-06T00:10:39.638Z,78.70
2023-01-06T00:15:44.794Z,78.60
2023-01-06T00:20:48.383Z,78.50
2023-01-06T00:25:53.241Z,78.60
2023-01-06T00:30:58.650Z,78.60
2023-01-06T00:36:02.912Z,78.50
2023-01-06T00:41:29.078Z,78.50
2023-01-06T00:46:35.073Z,78.50
2023-01-06T00:51:41.110Z,78.60
2023-01-06T00:56:47.141Z,78.60
2023-01-06T01:01:56.943Z,78.50
2023-01-06T01:07:01.571Z,79.30
2023-01-06T01:12:12.480Z,78.60
2023-01-06T01:17:21.234Z,78.50
2023-01-06T01:22:27.258Z,78.50
2023-01-06T01:27:30.871Z,78.50
2023-01-06T01:32:35.979Z,78.60
2023-01-06T01:37:40.117Z,78.60
2023-01-06T01:42:43.987Z,78.60
2023-01-06T01:47:53.086Z,78.50
2023-01-06T01:53:05.925Z,78.50
2023-01-06T01:58:15.178Z,78.50
2023-01-06T02:03:22.883Z,78.50
2023-01-06T02:08:33.168Z,78.50
2023-01-06T02:13:41.190Z,78.70
2023-01-06T02:19:00.511Z,78.50
2023-01-06T02:24:39.089Z,78.60
2023-01-06T02:30:41.650Z,78.90
2023-01-06T02:36:22.286Z,79.10
2023-01-06T02:41:35.453Z,78.90
2023-01-06T02:47:03.193Z,78.90
2023-01-06T02:52:18.279Z,78.90
2023-01-06T02:57:31.436Z,78.80
2023-01-06T03:02:41.574Z,78.80
2023-01-06T03:07:48.885Z,79.50
2023-01-06T03:12:57.713Z,78.90
2023-01-06T03:18:01.732Z,78.80
2023-01-06T03:23:07.326Z,78.90
2023-01-06T03:28:11.166Z,79.30
2023-01-06T03:33:24.847Z,79.40
2023-01-06T03:38:44.606Z,79.70
2023-01-06T03:44:01.342Z,79.50
2023-01-06T03:49:10.176Z,79.50
2023-01-06T03:54:36.427Z,79.40
2023-01-06T03:59:48.182Z,79.60
2023-01-06T04:05:11.095Z,79.60
2023-01-06T04:10:19.699Z,79.50
2023-01-06T04:15:29.365Z,80.10
2023-01-06T04:20:33.714Z,80.00
2023-01-06T04:25:59.049Z,79.50
2023-01-06T04:31:10.206Z,79.80
2023-01-06T04:36:14.618Z,79.50
2023-01-06T04:41:23.335Z,79.10
2023-01-06T04:46:27.108Z,79.20
2023-01-06T04:51:30.851Z,79.50
2023-01-06T04:56:36.062Z,79.50
2023-01-06T05:01:40.030Z,79.50
2023-01-06T05:06:43.739Z,79.50
2023-01-06T05:11:48.779Z,79.40
2023-01-06T05:16:52.361Z,79.40
2023-01-06T05:21:56.169Z,79.50
2023-01-06T05:27:01.363Z,79.50
2023-01-06T05:32:06.719Z,79.60
2023-01-06T05:37:10.479Z,79.30
2023-01-06T05:42:18.312Z,79.30
2023-01-06T05:47:22.361Z,79.50
2023-01-06T05:52:26.104Z,79.70
2023-01-06T05:57:34.104Z,79.70
2023-01-06T06:02:37.709Z,79.70
2023-01-06T06:07:41.385Z,79.70
2023-01-06T06:12:46.554Z,79.80
2023-01-06T06:17:50.238Z,79.70
2023-01-06T06:22:54.641Z,79.60
2023-01-06T06:28:02.547Z,79.70
2023-01-06T06:33:06.237Z,79.70
2023-01-06T06:38:09.911Z,79.30
2023-01-06T06:43:15.049Z,78.90
2023-01-06T06:48:18.932Z,78.80
2023-01-06T06:53:22.638Z,78.80
2023-01-06T06:58:27.794Z,78.80
2023-01-06T07:03:31.479Z,78.90
2023-01-06T07:08:35.572Z,79.20
2023-01-06T07:13:41.202Z,79.00
2023-01-06T07:18:45.140Z,79.40
2023-01-06T07:23:48.803Z,79.70
2023-01-06T07:28:53.876Z,79.90
2023-01-06T07:33:57.494Z,80.00
2023-01-06T07:39:01.156Z,79.90
2023-01-06T07:44:06.518Z,80.00
2023-01-06T07:49:10.127Z,80.00
2023-01-06T07:54:13.957Z,80.90
2023-01-06T07:59:19.116Z,80.20
2023-01-06T08:04:22.842Z,80.20
2023-01-06T08:09:26.620Z,80.10
2023-01-06T08:14:31.683Z,80.10
2023-01-06T08:19:35.354Z,79.70
2023-01-06T08:24:39.127Z,78.40
2023-01-06T08:29:44.269Z,76.90
2023-01-06T08:34:48.719Z,76.20
2023-01-06T08:39:52.863Z,75.40
2023-01-06T08:44:58.773Z,74.70
2023-01-06T08:50:02.597Z,74.00
2023-01-06T08:55:07.451Z,73.70
2023-01-06T09:00:15.347Z,73.10
2023-01-06T09:05:19.409Z,72.80
2023-01-06T09:10:23.754Z,72.20
2023-01-06T09:15:28.794Z,71.90
2023-01-06T09:20:33.440Z,71.70
2023-01-06T09:25:37.130Z,71.40
2023-01-06T09:30:42.269Z,71.30
2023-01-06T09:35:46.871Z,71.30
2023-01-06T09:41:18.647Z,71.20
2023-01-06T09:46:30.312Z,71.00
2023-01-06T09:51:35.613Z,70.90
2023-01-06T09:56:41.348Z,70.70
2023-01-06T10:01:51.411Z,70.70
2023-01-06T10:07:12.112Z,70.60
2023-01-06T10:12:36.444Z,70.60
2023-01-06T10:17:59.935Z,71.40
2023-01-06T10:23:38.339Z,71.60
2023-01-06T10:28:45.971Z,71.70
2023-01-06T10:33:54.612Z,71.90
2023-01-06T10:38:59.713Z,74.30
2023-01-06T10:44:03.450Z,73.80
2023-01-06T10:49:17.298Z,73.00
2023-01-06T10:54:29.335Z,73.30
2023-01-06T10:59:33.232Z,73.80
2023-01-06T11:04:52.459Z,73.70
2023-01-06T11:09:56.524Z,73.80
2023-01-06T11:15:06.958Z,74.00
2023-01-06T11:20:33.306Z,74.20
2023-01-06T11:25:37.109Z,74.50
2023-01-06T11:30:52.157Z,74.50
2023-01-06T11:35:58.769Z,74.70
2023-01-06T11:41:11.924Z,74.80
2023-01-06T11:46:17.022Z,74.80
2023-01-06T11:51:48.667Z,74.80
2023-01-06T11:57:02.559Z,74.90
2023-01-06T12:02:17.264Z,74.90
2023-01-06T12:07:33.513Z,74.90
2023-01-06T12:12:37.144Z,74.90
2023-01-06T12:17:51.086Z,75.00
2023-01-06T12:22:59.994Z,75.00
2023-01-06T12:28:08.395Z,75.70
2023-01-06T12:33:19.979Z,75.00
2023-01-06T12:38:43.029Z,75.00
2023-01-06T12:44:00.462Z,75.10
2023-01-06T12:49:17.473Z,75.20
2023-01-06T12:54:29.877Z,76.00
2023-01-06T12:59:49.555Z,77.40
2023-01-06T13:05:34.678Z,77.60
2023-01-06T13:10:47.478Z,77.50
2023-01-06T13:15:52.414Z,77.40
2023-01-06T13:21:03.277Z,77.40
2023-01-06T13:26:40.840Z,77.50
2023-01-06T13:32:33.262Z,77.50
2023-01-06T13:37:40.032Z,77.70
2023-01-06T13:42:54.852Z,77.80
2023-01-06T13:48:00.554Z,77.90
2023-01-06T13:53:04.562Z,77.90
2023-01-06T13:58:39.222Z,77.90
2023-01-06T14:03:44.494Z,77.90
2023-01-06T14:08:53.798Z,77.90
2023-01-06T14:14:01.480Z,77.90
2023-01-06T14:19:09.858Z,77.90
2023-01-06T14:24:31.412Z,77.90
2023-01-06T14:30:19.334Z,77.90
2023-01-06T14:35:32.292Z,77.90
2023-01-06T14:40:41.956Z,77.90
2023-01-06T14:45:47.736Z,77.80
2023-01-06T14:50:56.553Z,77.90
2023-01-06T14:56:01.783Z,77.80
2023-01-06T15:01:08.570Z,77.90
2023-01-06T15:06:22.376Z,77.80
2023-01-06T15:11:30.045Z,77.80
2023-01-06T15:16:39.456Z,77.90
2023-01-06T15:21:47.299Z,77.70
2023-01-06T15:26:52.217Z,77.80
2023-01-06T15:31:57.952Z,77.70
2023-01-06T15:37:04.237Z,77.60
2023-01-06T15:42:10.733Z,77.60
2023-01-06T15:47:33.122Z,77.50
2023-01-06T15:52:41.347Z,77.50
2023-01-06T15:57:45.417Z,77.50
2023-01-06T16:02:51.019Z,77.50
2023-01-06T16:08:03.984Z,77.70
2023-01-06T16:13:27.586Z,78.00
2023-01-06T16:18:36.076Z,77.10
2023-01-06T16:23:41.297Z,77.70
2023-01-06T16:28:50.189Z,76.90
2023-01-06T16:33:55.789Z,76.50
2023-01-06T16:38:59.426Z,76.10
2023-01-06T16:44:03.189Z,75.90
2023-01-06T16:49:11.889Z,76.10
2023-01-06T16:54:18.716Z,75.50
2023-01-06T16:59:23.129Z,75.40
2023-01-06T17:04:30.093Z,75.30
2023-01-06T17:09:33.905Z,75.70
2023-01-06T17:14:38.943Z,75.70
2023-01-06T17:19:44.409Z,75.80
2023-01-06T17:24:48.307Z,75.90
2023-01-06T17:29:54.096Z,76.60
2023-01-06T17:34:59.830Z,77.50
2023-01-06T17:40:04.395Z,78.40
2023-01-06T17:45:22.804Z,78.50
2023-01-06T17:50:33.683Z,78.40
2023-01-06T17:55:47.537Z,78.20
2023-01-06T18:00:51.405Z,78.20
2023-01-06T18:06:27.227Z,78.20
2023-01-06T18:11:36.302Z,78.10
2023-01-06T18:16:40.265Z,78.30
2023-01-06T18:21:46.494Z,77.50
2023-01-06T18:26:53.734Z,76.40
2023-01-06T18:31:57.881Z,75.80
2023-01-06T18:37:03.986Z,75.10
2023-01-06T18:42:28.081Z,74.30
2023-01-06T18:47:32.900Z,73.90
2023-01-06T18:52:45.108Z,73.90
2023-01-06T18:58:02.849Z,73.90
2023-01-06T19:03:34.987Z,74.00
2023-01-06T19:08:42.211Z,74.10
2023-01-06T19:13:47.500Z,74.20
2023-01-06T19:18:51.081Z,74.40
2023-01-06T19:23:56.098Z,74.50
2023-01-06T19:29:04.282Z,74.80
2023-01-06T19:34:14.581Z,75.10
2023-01-06T19:39:36.492Z,76.10
2023-01-06T19:44:40.456Z,75.30
2023-01-06T19:49:49.623Z,75.40
2023-01-06T19:54:55.044Z,75.50
2023-01-06T20:00:01.836Z,75.60
2023-01-06T20:05:15.708Z,75.80
2023-01-06T20:10:21.802Z,75.70
2023-01-06T20:15:25.644Z,76.60
2023-01-06T20:20:29.409Z,76.00
2023-01-06T20:25:34.823Z,76.00
2023-01-06T20:30:38.594Z,76.20
2023-01-06T20:35:42.355Z,76.30
2023-01-06T20:40:47.407Z,76.40
2023-01-06T20:45:51.128Z,76.50
2023-01-06T20:50:54.936Z,76.50
2023-01-06T20:55:59.957Z,76.40
2023-01-06T21:01:03.946Z,76.50
2023-01-06T21:06:09.725Z,76.70
2023-01-06T21:11:15.018Z,76.80
2023-01-06T21:16:19.285Z,76.80
2023-01-06T21:21:23.223Z,76.80
2023-01-06T21:26:28.434Z,77.00
2023-01-06T21:31:32.319Z,78.20
2023-01-06T21:36:36.835Z,79.90
2023-01-06T21:41:59.242Z,80.50
2023-01-06T21:47:03.875Z,80.60
2023-01-06T21:52:07.796Z,80.50
2023-01-06T21:57:13.781Z,80.40
2023-01-06T22:02:17.965Z,80.30
2023-01-06T22:07:22.239Z,80.50
2023-01-06T22:12:27.402Z,80.30
2023-01-06T22:17:31.103Z,80.30
2023-01-06T22:22:36.254Z,80.10
2023-01-06T22:27:41.515Z,80.30
2023-01-06T22:32:46.848Z,80.30
2023-01-06T22:37:50.465Z,80.20
2023-01-06T22:42:56.827Z,80.30
2023-01-06T22:48:00.713Z,80.40
2023-01-06T22:53:04.367Z,80.30
2023-01-06T22:58:09.593Z,80.20
2023-01-06T23:03:13.518Z,80.20
2023-01-06T23:08:17.440Z,80.20
2023-01-06T23:13:22.803Z,80.20
2023-01-06T23:18:27.135Z,80.00
2023-01-06T23:23:33.812Z,80.00
2023-01-06T23:28:39.876Z,80.20
2023-01-06T23:33:46.087Z,80.20
2023-01-06T23:38:51.344Z,80.10
2023-01-06T23:43:57.388Z,80.20
2023-01-06T23:49:01.501Z,80.20
2023-01-06T23:54:07.046Z,80.30
2023-01-06T23:59:13.955Z,80.20
